sensor_id;sensor_type;location;lat;lon;timestamp;temperature;humidity
31765;DHT22;18338;53.240;8.798;2024-02-23T00:01:08;7.10;99.90
31765;DHT22;18338;53.240;8.798;2024-02-23T00:03:35;7.00;99.90
31765;DHT22;18338;53.240;8.798;2024-02-23T00:06:03;7.00;99.90
31765;DHT22;18338;53.240;8.798;2024-02-23T00:08:30;7.00;99.90
31765;DHT22;18338;53.240;8.798;2024-02-23T00:10:57;7.00;99.90
31765;DHT22;18338;53.240;8.798;2024-02-23T00:13:24;7.00;99.90
31765;DHT22;18338;53.240;8.798;2024-02-23T00:15:50;7.00;99.90
31765;DHT22;18338;53.240;8.798;2024-02-23T00:18:18;7.10;99.90
31765;DHT22;18338;53.240;8.798;2024-02-23T00:20:47;7.10;99.90
31765;DHT22;18338;53.240;8.798;2024-02-23T00:23:13;7.10;99.90
31765;DHT22;18338;53.240;8.798;2024-02-23T00:25:40;7.20;99.90
31765;DHT22;18338;53.240;8.798;2024-02-23T00:28:08;7.20;99.90
31765;DHT22;18338;53.240;8.798;2024-02-23T00:30:35;7.20;99.90
31765;DHT22;18338;53.240;8.798;2024-02-23T00:33:03;7.20;99.90
31765;DHT22;18338;53.240;8.798;2024-02-23T00:35:30;7.20;99.90
31765;DHT22;18338;53.240;8.798;2024-02-23T00:37:57;7.10;99.90
31765;DHT22;18338;53.240;8.798;2024-02-23T00:40:23;7.10;99.90
31765;DHT22;18338;53.240;8.798;2024-02-23T00:42:50;7.00;99.90
31765;DHT22;18338;53.240;8.798;2024-02-23T00:45:17;7.00;99.90
31765;DHT22;18338;53.240;8.798;2024-02-23T00:47:44;6.90;99.90
31765;DHT22;18338;53.240;8.798;2024-02-23T00:50:12;6.80;99.90
31765;DHT22;18338;53.240;8.798;2024-02-23T00:52:39;6.80;99.90
31765;DHT22;18338;53.240;8.798;2024-02-23T00:55:07;6.90;99.90
31765;DHT22;18338;53.240;8.798;2024-02-23T00:57:35;6.80;99.90
31765;DHT22;18338;53.240;8.798;2024-02-23T01:00:03;6.90;99.90
31765;DHT22;18338;53.240;8.798;2024-02-23T01:02:31;6.80;99.90
31765;DHT22;18338;53.240;8.798;2024-02-23T01:04:59;6.80;99.90
31765;DHT22;18338;53.240;8.798;2024-02-23T01:07:26;6.60;99.90
31765;DHT22;18338;53.240;8.798;2024-02-23T01:09:54;6.50;99.90
31765;DHT22;18338;53.240;8.798;2024-02-23T01:12:21;6.40;99.90
31765;DHT22;18338;53.240;8.798;2024-02-23T01:14:48;6.20;99.90
31765;DHT22;18338;53.240;8.798;2024-02-23T01:17:15;6.20;99.90
31765;DHT22;18338;53.240;8.798;2024-02-23T01:19:43;6.10;99.90
31765;DHT22;18338;53.240;8.798;2024-02-23T01:22:10;6.00;99.90
31765;DHT22;18338;53.240;8.798;2024-02-23T01:24:37;5.90;99.90
31765;DHT22;18338;53.240;8.798;2024-02-23T01:27:04;5.90;99.90
31765;DHT22;18338;53.240;8.798;2024-02-23T01:29:30;5.80;99.90
31765;DHT22;18338;53.240;8.798;2024-02-23T01:31:57;5.70;99.90
31765;DHT22;18338;53.240;8.798;2024-02-23T01:34:24;5.60;99.90
31765;DHT22;18338;53.240;8.798;2024-02-23T01:36:51;5.60;99.90
31765;DHT22;18338;53.240;8.798;2024-02-23T01:39:17;5.60;99.90
31765;DHT22;18338;53.240;8.798;2024-02-23T01:41:44;5.50;99.90
31765;DHT22;18338;53.240;8.798;2024-02-23T01:44:11;5.50;99.90
31765;DHT22;18338;53.240;8.798;2024-02-23T01:46:38;5.40;99.90
31765;DHT22;18338;53.240;8.798;2024-02-23T01:49:06;5.40;99.90
31765;DHT22;18338;53.240;8.798;2024-02-23T01:51:35;5.30;99.90
31765;DHT22;18338;53.240;8.798;2024-02-23T01:54:02;5.30;99.90
31765;DHT22;18338;53.240;8.798;2024-02-23T01:56:30;5.30;99.90
31765;DHT22;18338;53.240;8.798;2024-02-23T01:58:57;5.30;99.90
31765;DHT22;18338;53.240;8.798;2024-02-23T02:01:24;5.20;99.90
31765;DHT22;18338;53.240;8.798;2024-02-23T02:03:51;5.30;99.90
31765;DHT22;18338;53.240;8.798;2024-02-23T02:06:18;5.30;99.90
31765;DHT22;18338;53.240;8.798;2024-02-23T02:08:45;5.30;99.90
31765;DHT22;18338;53.240;8.798;2024-02-23T02:11:12;5.40;99.90
31765;DHT22;18338;53.240;8.798;2024-02-23T02:13:39;5.40;99.90
31765;DHT22;18338;53.240;8.798;2024-02-23T02:16:06;5.40;99.90
31765;DHT22;18338;53.240;8.798;2024-02-23T02:18:33;5.30;99.90
31765;DHT22;18338;53.240;8.798;2024-02-23T02:20:59;5.30;99.90
31765;DHT22;18338;53.240;8.798;2024-02-23T02:23:27;5.30;99.90
31765;DHT22;18338;53.240;8.798;2024-02-23T02:25:58;5.20;99.90
31765;DHT22;18338;53.240;8.798;2024-02-23T02:28:25;5.10;99.90
31765;DHT22;18338;53.240;8.798;2024-02-23T02:30:52;5.00;99.90
31765;DHT22;18338;53.240;8.798;2024-02-23T02:33:20;4.90;99.90
31765;DHT22;18338;53.240;8.798;2024-02-23T02:35:47;4.90;99.90
31765;DHT22;18338;53.240;8.798;2024-02-23T02:38:13;4.80;99.90
31765;DHT22;18338;53.240;8.798;2024-02-23T02:40:41;4.80;99.90
31765;DHT22;18338;53.240;8.798;2024-02-23T02:43:08;4.80;99.90
31765;DHT22;18338;53.240;8.798;2024-02-23T02:45:34;4.80;99.90
31765;DHT22;18338;53.240;8.798;2024-02-23T02:48:02;4.80;99.90
31765;DHT22;18338;53.240;8.798;2024-02-23T02:50:29;4.80;99.90
31765;DHT22;18338;53.240;8.798;2024-02-23T02:52:56;4.70;99.90
31765;DHT22;18338;53.240;8.798;2024-02-23T02:55:23;4.60;99.90
31765;DHT22;18338;53.240;8.798;2024-02-23T02:57:49;4.50;99.90
31765;DHT22;18338;53.240;8.798;2024-02-23T03:00:16;4.40;99.90
31765;DHT22;18338;53.240;8.798;2024-02-23T03:02:43;4.40;99.90
31765;DHT22;18338;53.240;8.798;2024-02-23T03:05:09;4.30;99.90
31765;DHT22;18338;53.240;8.798;2024-02-23T03:07:36;4.40;99.90
31765;DHT22;18338;53.240;8.798;2024-02-23T03:10:03;4.40;99.90
31765;DHT22;18338;53.240;8.798;2024-02-23T03:12:30;4.30;99.90
31765;DHT22;18338;53.240;8.798;2024-02-23T03:14:57;4.30;99.90
31765;DHT22;18338;53.240;8.798;2024-02-23T03:17:23;4.30;99.90
31765;DHT22;18338;53.240;8.798;2024-02-23T03:19:50;4.30;99.90
31765;DHT22;18338;53.240;8.798;2024-02-23T03:22:17;4.30;99.90
31765;DHT22;18338;53.240;8.798;2024-02-23T03:24:44;4.30;99.90
31765;DHT22;18338;53.240;8.798;2024-02-23T03:27:11;4.40;99.90
31765;DHT22;18338;53.240;8.798;2024-02-23T03:29:38;4.40;99.90
31765;DHT22;18338;53.240;8.798;2024-02-23T03:32:05;4.50;99.90
31765;DHT22;18338;53.240;8.798;2024-02-23T03:34:32;4.60;99.90
31765;DHT22;18338;53.240;8.798;2024-02-23T03:37:00;4.60;99.90
31765;DHT22;18338;53.240;8.798;2024-02-23T03:39:28;4.70;99.90
31765;DHT22;18338;53.240;8.798;2024-02-23T03:41:55;4.80;99.90
31765;DHT22;18338;53.240;8.798;2024-02-23T03:44:22;5.00;99.90
31765;DHT22;18338;53.240;8.798;2024-02-23T03:46:49;5.00;99.90
31765;DHT22;18338;53.240;8.798;2024-02-23T03:49:16;5.10;99.90
31765;DHT22;18338;53.240;8.798;2024-02-23T03:51:43;5.00;99.90
31765;DHT22;18338;53.240;8.798;2024-02-23T03:54:09;5.00;99.90
31765;DHT22;18338;53.240;8.798;2024-02-23T03:56:40;4.90;99.90
31765;DHT22;18338;53.240;8.798;2024-02-23T03:59:08;4.90;99.90
31765;DHT22;18338;53.240;8.798;2024-02-23T04:01:38;4.80;99.90
31765;DHT22;18338;53.240;8.798;2024-02-23T04:04:06;4.80;99.90
31765;DHT22;18338;53.240;8.798;2024-02-23T04:06:36;4.90;99.90
31765;DHT22;18338;53.240;8.798;2024-02-23T04:09:03;4.80;99.90
31765;DHT22;18338;53.240;8.798;2024-02-23T04:11:32;4.80;99.90
31765;DHT22;18338;53.240;8.798;2024-02-23T04:14:00;4.80;99.90
31765;DHT22;18338;53.240;8.798;2024-02-23T04:16:27;4.80;99.90
31765;DHT22;18338;53.240;8.798;2024-02-23T04:18:54;4.70;99.90
31765;DHT22;18338;53.240;8.798;2024-02-23T04:21:21;4.70;99.90
31765;DHT22;18338;53.240;8.798;2024-02-23T04:23:47;4.80;99.90
31765;DHT22;18338;53.240;8.798;2024-02-23T04:26:14;4.80;99.90
31765;DHT22;18338;53.240;8.798;2024-02-23T04:28:41;4.80;99.90
31765;DHT22;18338;53.240;8.798;2024-02-23T04:31:09;5.00;99.90
31765;DHT22;18338;53.240;8.798;2024-02-23T04:33:37;5.00;99.90
31765;DHT22;18338;53.240;8.798;2024-02-23T04:36:04;5.00;99.90
31765;DHT22;18338;53.240;8.798;2024-02-23T04:38:31;5.00;99.90
31765;DHT22;18338;53.240;8.798;2024-02-23T04:40:58;4.90;99.90
31765;DHT22;18338;53.240;8.798;2024-02-23T04:43:25;4.80;99.90
31765;DHT22;18338;53.240;8.798;2024-02-23T04:45:52;4.80;99.90
31765;DHT22;18338;53.240;8.798;2024-02-23T04:48:20;4.80;99.90
31765;DHT22;18338;53.240;8.798;2024-02-23T04:50:47;4.90;99.90
31765;DHT22;18338;53.240;8.798;2024-02-23T04:53:13;4.80;99.90
31765;DHT22;18338;53.240;8.798;2024-02-23T04:55:40;4.70;99.90
31765;DHT22;18338;53.240;8.798;2024-02-23T04:58:08;4.80;99.90
31765;DHT22;18338;53.240;8.798;2024-02-23T05:00:34;4.80;99.90
31765;DHT22;18338;53.240;8.798;2024-02-23T05:03:01;4.80;99.90
31765;DHT22;18338;53.240;8.798;2024-02-23T05:05:31;4.80;99.90
31765;DHT22;18338;53.240;8.798;2024-02-23T05:07:58;4.80;99.90
31765;DHT22;18338;53.240;8.798;2024-02-23T05:10:26;4.90;99.90
31765;DHT22;18338;53.240;8.798;2024-02-23T05:12:53;4.80;99.90
31765;DHT22;18338;53.240;8.798;2024-02-23T05:15:20;4.90;99.90
31765;DHT22;18338;53.240;8.798;2024-02-23T05:17:47;4.90;99.90
31765;DHT22;18338;53.240;8.798;2024-02-23T05:20:14;4.80;99.90
31765;DHT22;18338;53.240;8.798;2024-02-23T05:22:41;4.80;99.90
31765;DHT22;18338;53.240;8.798;2024-02-23T05:25:08;4.80;99.90
31765;DHT22;18338;53.240;8.798;2024-02-23T05:27:35;4.80;99.90
31765;DHT22;18338;53.240;8.798;2024-02-23T05:30:02;4.70;99.90
31765;DHT22;18338;53.240;8.798;2024-02-23T05:32:29;4.70;99.90
31765;DHT22;18338;53.240;8.798;2024-02-23T05:34:56;4.60;99.90
31765;DHT22;18338;53.240;8.798;2024-02-23T05:37:24;4.60;99.90
31765;DHT22;18338;53.240;8.798;2024-02-23T05:39:51;4.60;99.90
31765;DHT22;18338;53.240;8.798;2024-02-23T05:42:18;4.50;99.90
31765;DHT22;18338;53.240;8.798;2024-02-23T05:44:44;4.50;99.90
31765;DHT22;18338;53.240;8.798;2024-02-23T05:47:11;4.50;99.90
31765;DHT22;18338;53.240;8.798;2024-02-23T05:49:40;4.50;99.90
31765;DHT22;18338;53.240;8.798;2024-02-23T05:52:07;4.50;99.90
31765;DHT22;18338;53.240;8.798;2024-02-23T05:54:34;4.50;99.90
31765;DHT22;18338;53.240;8.798;2024-02-23T05:57:01;4.50;99.90
31765;DHT22;18338;53.240;8.798;2024-02-23T05:59:27;4.50;99.90
31765;DHT22;18338;53.240;8.798;2024-02-23T06:01:54;4.60;99.90
31765;DHT22;18338;53.240;8.798;2024-02-23T06:04:24;4.70;99.90
31765;DHT22;18338;53.240;8.798;2024-02-23T06:06:51;4.70;99.90
31765;DHT22;18338;53.240;8.798;2024-02-23T06:09:18;4.70;99.90
31765;DHT22;18338;53.240;8.798;2024-02-23T06:11:46;4.70;99.90
31765;DHT22;18338;53.240;8.798;2024-02-23T06:14:13;4.70;99.90
31765;DHT22;18338;53.240;8.798;2024-02-23T06:16:40;4.80;99.90
31765;DHT22;18338;53.240;8.798;2024-02-23T06:19:07;4.90;99.90
31765;DHT22;18338;53.240;8.798;2024-02-23T06:21:35;4.90;99.90
31765;DHT22;18338;53.240;8.798;2024-02-23T06:24:02;4.80;99.90
31765;DHT22;18338;53.240;8.798;2024-02-23T06:26:29;4.80;99.90
31765;DHT22;18338;53.240;8.798;2024-02-23T06:28:58;4.70;99.90
31765;DHT22;18338;53.240;8.798;2024-02-23T06:31:25;4.60;99.90
31765;DHT22;18338;53.240;8.798;2024-02-23T06:33:52;4.60;99.90
31765;DHT22;18338;53.240;8.798;2024-02-23T06:36:19;4.40;99.90
31765;DHT22;18338;53.240;8.798;2024-02-23T06:38:46;4.40;99.90
31765;DHT22;18338;53.240;8.798;2024-02-23T06:41:12;4.30;99.90
31765;DHT22;18338;53.240;8.798;2024-02-23T06:43:39;4.20;99.90
31765;DHT22;18338;53.240;8.798;2024-02-23T06:46:07;4.20;99.90
31765;DHT22;18338;53.240;8.798;2024-02-23T06:48:37;4.20;99.90
31765;DHT22;18338;53.240;8.798;2024-02-23T06:51:05;4.20;99.90
31765;DHT22;18338;53.240;8.798;2024-02-23T06:53:31;4.10;99.90
31765;DHT22;18338;53.240;8.798;2024-02-23T06:55:59;4.10;99.90
31765;DHT22;18338;53.240;8.798;2024-02-23T06:58:26;4.00;99.90
31765;DHT22;18338;53.240;8.798;2024-02-23T07:00:53;4.10;99.90
31765;DHT22;18338;53.240;8.798;2024-02-23T07:03:20;4.10;99.90
31765;DHT22;18338;53.240;8.798;2024-02-23T07:05:47;4.20;99.90
31765;DHT22;18338;53.240;8.798;2024-02-23T07:08:15;4.20;99.90
31765;DHT22;18338;53.240;8.798;2024-02-23T07:10:42;4.40;99.90
31765;DHT22;18338;53.240;8.798;2024-02-23T07:13:08;4.40;99.90
31765;DHT22;18338;53.240;8.798;2024-02-23T07:15:35;4.40;99.90
31765;DHT22;18338;53.240;8.798;2024-02-23T07:18:05;4.60;99.90
31765;DHT22;18338;53.240;8.798;2024-02-23T07:20:32;4.60;99.90
31765;DHT22;18338;53.240;8.798;2024-02-23T07:22:59;4.70;99.90
31765;DHT22;18338;53.240;8.798;2024-02-23T07:25:25;4.80;99.90
31765;DHT22;18338;53.240;8.798;2024-02-23T07:27:52;4.90;99.90
31765;DHT22;18338;53.240;8.798;2024-02-23T07:30:20;4.90;99.90
31765;DHT22;18338;53.240;8.798;2024-02-23T07:32:46;4.90;99.90
31765;DHT22;18338;53.240;8.798;2024-02-23T07:35:18;5.00;99.90
31765;DHT22;18338;53.240;8.798;2024-02-23T07:37:46;5.10;99.90
31765;DHT22;18338;53.240;8.798;2024-02-23T07:40:13;5.10;99.90
31765;DHT22;18338;53.240;8.798;2024-02-23T07:42:42;5.20;99.90
31765;DHT22;18338;53.240;8.798;2024-02-23T07:45:09;5.30;99.90
31765;DHT22;18338;53.240;8.798;2024-02-23T07:47:36;5.30;99.90
31765;DHT22;18338;53.240;8.798;2024-02-23T07:50:04;5.40;99.90
31765;DHT22;18338;53.240;8.798;2024-02-23T07:52:31;5.40;99.90
31765;DHT22;18338;53.240;8.798;2024-02-23T07:54:58;5.40;99.90
31765;DHT22;18338;53.240;8.798;2024-02-23T07:57:26;5.40;99.90
31765;DHT22;18338;53.240;8.798;2024-02-23T07:59:53;5.40;99.90
31765;DHT22;18338;53.240;8.798;2024-02-23T08:02:20;5.50;99.90
31765;DHT22;18338;53.240;8.798;2024-02-23T08:04:47;5.60;99.90
31765;DHT22;18338;53.240;8.798;2024-02-23T08:07:15;5.60;99.90
31765;DHT22;18338;53.240;8.798;2024-02-23T08:09:41;5.60;99.90
31765;DHT22;18338;53.240;8.798;2024-02-23T08:12:08;5.70;99.90
31765;DHT22;18338;53.240;8.798;2024-02-23T08:14:35;5.80;99.90
31765;DHT22;18338;53.240;8.798;2024-02-23T08:17:02;5.80;99.90
31765;DHT22;18338;53.240;8.798;2024-02-23T08:19:29;5.80;99.90
31765;DHT22;18338;53.240;8.798;2024-02-23T08:21:56;5.90;99.90
31765;DHT22;18338;53.240;8.798;2024-02-23T08:24:24;6.00;99.90
31765;DHT22;18338;53.240;8.798;2024-02-23T08:26:53;6.00;99.90
31765;DHT22;18338;53.240;8.798;2024-02-23T08:29:20;6.10;99.90
31765;DHT22;18338;53.240;8.798;2024-02-23T08:31:48;6.20;99.90
31765;DHT22;18338;53.240;8.798;2024-02-23T08:34:15;6.40;99.90
31765;DHT22;18338;53.240;8.798;2024-02-23T08:36:44;6.60;99.90
31765;DHT22;18338;53.240;8.798;2024-02-23T08:39:11;6.80;99.90
31765;DHT22;18338;53.240;8.798;2024-02-23T08:41:37;6.90;99.90
31765;DHT22;18338;53.240;8.798;2024-02-23T08:44:05;7.00;99.90
31765;DHT22;18338;53.240;8.798;2024-02-23T08:46:32;7.00;99.90
31765;DHT22;18338;53.240;8.798;2024-02-23T08:48:58;7.00;99.90
31765;DHT22;18338;53.240;8.798;2024-02-23T08:51:25;6.90;99.90
31765;DHT22;18338;53.240;8.798;2024-02-23T08:53:52;6.90;99.90
31765;DHT22;18338;53.240;8.798;2024-02-23T08:56:18;7.00;99.90
31765;DHT22;18338;53.240;8.798;2024-02-23T08:58:45;7.10;99.90
31765;DHT22;18338;53.240;8.798;2024-02-23T09:01:12;7.30;99.90
31765;DHT22;18338;53.240;8.798;2024-02-23T09:03:39;7.30;99.90
31765;DHT22;18338;53.240;8.798;2024-02-23T09:06:06;7.90;99.90
31765;DHT22;18338;53.240;8.798;2024-02-23T09:08:32;8.60;99.90
31765;DHT22;18338;53.240;8.798;2024-02-23T09:10:59;8.20;99.90
31765;DHT22;18338;53.240;8.798;2024-02-23T09:13:26;7.90;99.90
31765;DHT22;18338;53.240;8.798;2024-02-23T09:15:54;8.00;99.90
31765;DHT22;18338;53.240;8.798;2024-02-23T09:18:21;8.00;99.90
31765;DHT22;18338;53.240;8.798;2024-02-23T09:20:48;8.50;99.90
31765;DHT22;18338;53.240;8.798;2024-02-23T09:23:15;9.60;99.90
31765;DHT22;18338;53.240;8.798;2024-02-23T09:25:41;9.50;99.90
31765;DHT22;18338;53.240;8.798;2024-02-23T09:28:10;10.20;99.90
31765;DHT22;18338;53.240;8.798;2024-02-23T09:30:38;9.70;99.90
31765;DHT22;18338;53.240;8.798;2024-02-23T09:33:05;9.20;99.90
31765;DHT22;18338;53.240;8.798;2024-02-23T09:35:32;9.00;99.90
31765;DHT22;18338;53.240;8.798;2024-02-23T09:37:59;8.60;99.90
31765;DHT22;18338;53.240;8.798;2024-02-23T09:40:26;8.30;99.90
31765;DHT22;18338;53.240;8.798;2024-02-23T09:42:57;8.00;99.90
31765;DHT22;18338;53.240;8.798;2024-02-23T09:45:25;8.00;99.90
31765;DHT22;18338;53.240;8.798;2024-02-23T09:47:53;8.10;99.90
31765;DHT22;18338;53.240;8.798;2024-02-23T09:50:23;8.00;99.90
31765;DHT22;18338;53.240;8.798;2024-02-23T09:52:50;7.80;99.90
31765;DHT22;18338;53.240;8.798;2024-02-23T09:55:17;7.70;99.90
31765;DHT22;18338;53.240;8.798;2024-02-23T09:57:48;7.60;99.90
31765;DHT22;18338;53.240;8.798;2024-02-23T10:00:18;7.60;99.90
31765;DHT22;18338;53.240;8.798;2024-02-23T10:02:45;7.60;99.90
31765;DHT22;18338;53.240;8.798;2024-02-23T10:05:12;7.70;99.90
31765;DHT22;18338;53.240;8.798;2024-02-23T10:07:40;7.80;99.90
31765;DHT22;18338;53.240;8.798;2024-02-23T10:10:08;8.00;99.90
31765;DHT22;18338;53.240;8.798;2024-02-23T10:12:35;8.20;99.90
31765;DHT22;18338;53.240;8.798;2024-02-23T10:15:03;8.40;99.90
31765;DHT22;18338;53.240;8.798;2024-02-23T10:17:31;8.60;99.90
31765;DHT22;18338;53.240;8.798;2024-02-23T10:20:02;9.10;99.90
31765;DHT22;18338;53.240;8.798;2024-02-23T10:22:32;10.30;99.90
31765;DHT22;18338;53.240;8.798;2024-02-23T10:24:59;10.20;99.90
31765;DHT22;18338;53.240;8.798;2024-02-23T10:27:26;10.00;99.90
31765;DHT22;18338;53.240;8.798;2024-02-23T10:29:54;9.80;99.90
31765;DHT22;18338;53.240;8.798;2024-02-23T10:32:21;9.50;99.90
31765;DHT22;18338;53.240;8.798;2024-02-23T10:34:48;8.90;99.90
31765;DHT22;18338;53.240;8.798;2024-02-23T10:37:17;8.70;99.90
31765;DHT22;18338;53.240;8.798;2024-02-23T10:39:46;8.50;99.90
31765;DHT22;18338;53.240;8.798;2024-02-23T10:42:14;8.50;99.90
31765;DHT22;18338;53.240;8.798;2024-02-23T10:44:43;8.80;99.90
31765;DHT22;18338;53.240;8.798;2024-02-23T10:47:11;8.60;99.90
31765;DHT22;18338;53.240;8.798;2024-02-23T10:49:38;8.50;99.90
31765;DHT22;18338;53.240;8.798;2024-02-23T10:52:07;8.60;99.90
31765;DHT22;18338;53.240;8.798;2024-02-23T10:54:36;8.70;99.90
31765;DHT22;18338;53.240;8.798;2024-02-23T10:57:03;8.70;99.90
31765;DHT22;18338;53.240;8.798;2024-02-23T10:59:30;8.70;99.90
31765;DHT22;18338;53.240;8.798;2024-02-23T11:01:57;8.70;99.90
31765;DHT22;18338;53.240;8.798;2024-02-23T11:04:26;8.80;99.90
31765;DHT22;18338;53.240;8.798;2024-02-23T11:06:55;8.80;99.90
31765;DHT22;18338;53.240;8.798;2024-02-23T11:09:25;8.70;99.90
31765;DHT22;18338;53.240;8.798;2024-02-23T11:11:53;8.60;99.90
31765;DHT22;18338;53.240;8.798;2024-02-23T11:14:38;8.40;99.90
31765;DHT22;18338;53.240;8.798;2024-02-23T11:17:05;8.40;99.90
31765;DHT22;18338;53.240;8.798;2024-02-23T11:19:39;8.20;99.90
31765;DHT22;18338;53.240;8.798;2024-02-23T11:22:09;8.30;99.90
31765;DHT22;18338;53.240;8.798;2024-02-23T11:24:49;8.30;99.90
31765;DHT22;18338;53.240;8.798;2024-02-23T11:27:20;8.30;99.90
31765;DHT22;18338;53.240;8.798;2024-02-23T11:29:59;8.40;99.90
31765;DHT22;18338;53.240;8.798;2024-02-23T11:32:37;8.50;99.90
31765;DHT22;18338;53.240;8.798;2024-02-23T11:35:10;8.80;99.90
31765;DHT22;18338;53.240;8.798;2024-02-23T11:37:48;8.90;99.90
31765;DHT22;18338;53.240;8.798;2024-02-23T11:40:19;9.10;99.90
31765;DHT22;18338;53.240;8.798;2024-02-23T11:42:46;9.50;99.90
31765;DHT22;18338;53.240;8.798;2024-02-23T11:45:14;9.80;99.90
31765;DHT22;18338;53.240;8.798;2024-02-23T11:47:40;10.50;99.90
31765;DHT22;18338;53.240;8.798;2024-02-23T11:50:10;11.00;99.90
31765;DHT22;18338;53.240;8.798;2024-02-23T11:52:38;12.20;99.90
31765;DHT22;18338;53.240;8.798;2024-02-23T11:55:06;11.90;99.90
31765;DHT22;18338;53.240;8.798;2024-02-23T11:57:35;11.30;99.90
31765;DHT22;18338;53.240;8.798;2024-02-23T12:00:14;10.70;99.90
31765;DHT22;18338;53.240;8.798;2024-02-23T12:02:43;10.30;99.90
31765;DHT22;18338;53.240;8.798;2024-02-23T12:05:11;10.10;99.90
31765;DHT22;18338;53.240;8.798;2024-02-23T12:07:38;9.70;99.90
31765;DHT22;18338;53.240;8.798;2024-02-23T12:10:08;9.60;99.90
31765;DHT22;18338;53.240;8.798;2024-02-23T12:12:35;9.60;99.90
31765;DHT22;18338;53.240;8.798;2024-02-23T12:15:02;9.40;99.90
31765;DHT22;18338;53.240;8.798;2024-02-23T12:17:29;9.30;99.90
31765;DHT22;18338;53.240;8.798;2024-02-23T12:20:00;9.30;99.90
31765;DHT22;18338;53.240;8.798;2024-02-23T12:22:27;9.10;99.90
31765;DHT22;18338;53.240;8.798;2024-02-23T12:24:58;9.00;99.90
31765;DHT22;18338;53.240;8.798;2024-02-23T12:27:26;8.90;99.90
31765;DHT22;18338;53.240;8.798;2024-02-23T12:29:54;8.80;99.90
31765;DHT22;18338;53.240;8.798;2024-02-23T12:32:21;8.60;99.90
31765;DHT22;18338;53.240;8.798;2024-02-23T12:34:49;8.60;99.90
31765;DHT22;18338;53.240;8.798;2024-02-23T12:37:16;8.50;99.90
31765;DHT22;18338;53.240;8.798;2024-02-23T12:39:44;8.50;99.90
31765;DHT22;18338;53.240;8.798;2024-02-23T12:42:11;8.50;99.90
31765;DHT22;18338;53.240;8.798;2024-02-23T12:44:38;8.40;99.90
31765;DHT22;18338;53.240;8.798;2024-02-23T12:47:05;8.40;99.90
31765;DHT22;18338;53.240;8.798;2024-02-23T12:49:32;8.40;99.90
31765;DHT22;18338;53.240;8.798;2024-02-23T12:51:59;8.30;99.90
31765;DHT22;18338;53.240;8.798;2024-02-23T12:54:26;8.30;99.90
31765;DHT22;18338;53.240;8.798;2024-02-23T12:56:53;8.30;99.90
31765;DHT22;18338;53.240;8.798;2024-02-23T12:59:20;8.30;99.90
31765;DHT22;18338;53.240;8.798;2024-02-23T13:01:47;8.50;99.90
31765;DHT22;18338;53.240;8.798;2024-02-23T13:04:18;8.70;99.90
31765;DHT22;18338;53.240;8.798;2024-02-23T13:06:45;9.10;99.90
31765;DHT22;18338;53.240;8.798;2024-02-23T13:09:12;9.70;99.90
31765;DHT22;18338;53.240;8.798;2024-02-23T13:11:41;11.40;99.90
31765;DHT22;18338;53.240;8.798;2024-02-23T13:14:08;12.80;99.90
31765;DHT22;18338;53.240;8.798;2024-02-23T13:16:36;14.40;99.90
31765;DHT22;18338;53.240;8.798;2024-02-23T13:19:03;16.40;99.90
31765;DHT22;18338;53.240;8.798;2024-02-23T13:21:29;16.30;99.90
31765;DHT22;18338;53.240;8.798;2024-02-23T13:23:58;15.10;99.90
31765;DHT22;18338;53.240;8.798;2024-02-23T13:26:25;15.60;99.90
31765;DHT22;18338;53.240;8.798;2024-02-23T13:28:52;16.30;99.90
31765;DHT22;18338;53.240;8.798;2024-02-23T13:31:19;17.00;99.90
31765;DHT22;18338;53.240;8.798;2024-02-23T13:33:46;16.90;99.90
31765;DHT22;18338;53.240;8.798;2024-02-23T13:36:13;15.70;99.90
31765;DHT22;18338;53.240;8.798;2024-02-23T13:38:40;14.30;99.90
31765;DHT22;18338;53.240;8.798;2024-02-23T13:41:08;12.80;99.90
31765;DHT22;18338;53.240;8.798;2024-02-23T13:43:35;12.30;99.90
31765;DHT22;18338;53.240;8.798;2024-02-23T13:46:02;13.50;99.90
31765;DHT22;18338;53.240;8.798;2024-02-23T13:48:30;15.00;99.90
31765;DHT22;18338;53.240;8.798;2024-02-23T13:50:57;15.30;99.90
31765;DHT22;18338;53.240;8.798;2024-02-23T13:53:30;15.30;99.90
31765;DHT22;18338;53.240;8.798;2024-02-23T13:55:58;14.40;99.90
31765;DHT22;18338;53.240;8.798;2024-02-23T13:58:25;13.60;99.90
31765;DHT22;18338;53.240;8.798;2024-02-23T14:00:51;13.20;99.90
31765;DHT22;18338;53.240;8.798;2024-02-23T14:03:18;12.70;99.90
31765;DHT22;18338;53.240;8.798;2024-02-23T14:05:45;11.50;99.90
31765;DHT22;18338;53.240;8.798;2024-02-23T14:08:14;11.00;99.90
31765;DHT22;18338;53.240;8.798;2024-02-23T14:10:41;10.70;99.90
31765;DHT22;18338;53.240;8.798;2024-02-23T14:13:10;10.50;99.90
31765;DHT22;18338;53.240;8.798;2024-02-23T14:15:37;10.10;99.90
31765;DHT22;18338;53.240;8.798;2024-02-23T14:18:04;9.80;99.90
31765;DHT22;18338;53.240;8.798;2024-02-23T14:20:31;9.50;99.90
31765;DHT22;18338;53.240;8.798;2024-02-23T14:22:57;9.30;99.90
31765;DHT22;18338;53.240;8.798;2024-02-23T14:25:24;9.20;99.90
31765;DHT22;18338;53.240;8.798;2024-02-23T14:27:51;9.20;99.90
31765;DHT22;18338;53.240;8.798;2024-02-23T14:30:17;9.20;99.90
31765;DHT22;18338;53.240;8.798;2024-02-23T14:32:44;9.30;99.90
31765;DHT22;18338;53.240;8.798;2024-02-23T14:35:11;9.50;99.90
31765;DHT22;18338;53.240;8.798;2024-02-23T14:37:38;9.70;99.90
31765;DHT22;18338;53.240;8.798;2024-02-23T14:40:05;9.80;99.90
31765;DHT22;18338;53.240;8.798;2024-02-23T14:42:32;10.00;99.90
31765;DHT22;18338;53.240;8.798;2024-02-23T14:44:59;10.10;99.90
31765;DHT22;18338;53.240;8.798;2024-02-23T14:47:25;10.00;99.90
31765;DHT22;18338;53.240;8.798;2024-02-23T14:50:01;9.90;99.90
31765;DHT22;18338;53.240;8.798;2024-02-23T14:52:28;9.50;99.90
31765;DHT22;18338;53.240;8.798;2024-02-23T14:54:55;9.30;99.90
31765;DHT22;18338;53.240;8.798;2024-02-23T14:57:22;9.10;99.90
31765;DHT22;18338;53.240;8.798;2024-02-23T14:59:48;9.10;99.90
31765;DHT22;18338;53.240;8.798;2024-02-23T15:02:20;9.10;99.90
31765;DHT22;18338;53.240;8.798;2024-02-23T15:04:47;9.20;99.90
31765;DHT22;18338;53.240;8.798;2024-02-23T15:07:14;9.20;99.90
31765;DHT22;18338;53.240;8.798;2024-02-23T15:09:41;9.20;99.90
31765;DHT22;18338;53.240;8.798;2024-02-23T15:12:09;9.20;99.90
31765;DHT22;18338;53.240;8.798;2024-02-23T15:14:36;9.20;99.90
31765;DHT22;18338;53.240;8.798;2024-02-23T15:17:03;9.30;99.90
31765;DHT22;18338;53.240;8.798;2024-02-23T15:19:30;9.20;99.90
31765;DHT22;18338;53.240;8.798;2024-02-23T15:21:57;9.10;99.90
31765;DHT22;18338;53.240;8.798;2024-02-23T15:24:24;9.20;99.90
31765;DHT22;18338;53.240;8.798;2024-02-23T15:26:51;9.30;99.90
31765;DHT22;18338;53.240;8.798;2024-02-23T15:29:18;9.60;99.90
31765;DHT22;18338;53.240;8.798;2024-02-23T15:31:45;9.80;99.90
31765;DHT22;18338;53.240;8.798;2024-02-23T15:34:12;10.10;99.90
31765;DHT22;18338;53.240;8.798;2024-02-23T15:36:39;10.00;99.90
31765;DHT22;18338;53.240;8.798;2024-02-23T15:39:06;9.30;99.90
31765;DHT22;18338;53.240;8.798;2024-02-23T15:41:33;8.80;99.90
31765;DHT22;18338;53.240;8.798;2024-02-23T15:44:01;8.50;99.90
31765;DHT22;18338;53.240;8.798;2024-02-23T15:46:28;8.30;99.90